Time;durP1;ratioP1;P1;durP2;ratioP2;P2;SDS_P1;SDS_P2;PMS_P1;PMS_P2;Temp;Humidity;BMP_temperature;BMP_pressure;BME280_temperature;BME280_humidity;BME280_pressure;Samples;Min_cycle;Max_cycle;Signal;HPM_P1;HPM_P2
2024/01/22 00:00:04;;;;;;;2.67;1.80;;;;;;;4.50;60.64;98775.59;5024214;28;20206;-73
2024/01/22 00:02:42;;;;;;;1.80;1.37;;;;;;;4.50;60.15;98780.84;5024120;28;20237;-73
2024/01/22 00:05:10;;;;;;;3.07;1.50;;;;;;;4.30;60.93;98769.78;5024252;28;20198;-73
2024/01/22 00:07:46;;;;;;;4.37;1.57;;;;;;;4.36;60.30;98768.34;5024192;28;20668;-73
2024/01/22 00:10:15;;;;;;;2.97;1.70;;;;;;;4.34;60.38;98770.31;5025264;28;20268;-73
2024/01/22 00:12:53;;;;;;;2.63;1.57;;;;;;;4.33;60.03;98768.66;5027509;28;20236;-73
2024/01/22 00:15:25;;;;;;;2.40;1.43;;;;;;;4.39;59.33;98770.66;5027637;28;20206;-73
2024/01/22 00:17:52;;;;;;;2.77;1.40;;;;;;;4.37;60.02;98756.81;5027364;28;20316;-73
2024/01/22 00:20:22;;;;;;;3.90;1.57;;;;;;;4.19;62.06;98762.22;5027431;28;20294;-73
2024/01/22 00:22:51;;;;;;;2.47;1.70;;;;;;;4.11;61.01;98756.94;5027102;28;20229;-73
2024/01/22 00:25:19;;;;;;;2.13;1.57;;;;;;;3.95;62.88;98756.06;5027608;28;20218;-73
2024/01/22 00:27:49;;;;;;;1.57;1.40;;;;;;;3.89;63.60;98739.13;5027074;28;20241;-73
2024/01/22 00:30:17;;;;;;;1.60;1.40;;;;;;;3.87;63.14;98730.59;5027358;28;20218;-73
2024/01/22 00:32:44;;;;;;;3.73;1.50;;;;;;;3.86;63.80;98731.56;5027371;28;20222;-73
2024/01/22 00:35:10;;;;;;;2.87;1.47;;;;;;;3.82;64.28;98739.94;5027661;28;20209;-73
2024/01/22 00:37:36;;;;;;;4.00;1.77;;;;;;;3.73;64.17;98733.84;5027174;28;20217;-73
2024/01/22 00:40:03;;;;;;;2.43;1.53;;;;;;;3.86;63.01;98736.00;5027436;28;20605;-73
2024/01/22 00:42:29;;;;;;;2.10;1.73;;;;;;;3.67;64.78;98739.72;5027003;28;20225;-73
2024/01/22 00:44:56;;;;;;;3.27;1.80;;;;;;;3.78;64.59;98726.28;5027179;28;20209;-73
2024/01/22 00:47:22;;;;;;;1.73;1.60;;;;;;;3.84;64.26;98724.81;5027239;28;20576;-73
2024/01/22 00:49:48;;;;;;;1.97;1.33;;;;;;;3.73;65.67;98723.31;5027279;28;20579;-73
2024/01/22 00:52:14;;;;;;;2.97;1.60;;;;;;;3.78;64.19;98736.81;5026945;28;20252;-73
2024/01/22 00:54:41;;;;;;;3.50;1.60;;;;;;;3.54;66.32;98717.50;5027106;28;20225;-73
2024/01/22 00:57:07;;;;;;;3.00;1.77;;;;;;;3.45;66.27;98718.44;5026736;28;20664;-73
2024/01/22 00:59:33;;;;;;;3.43;1.70;;;;;;;3.28;68.42;98703.56;5026920;28;20691;-73
2024/01/22 01:02:00;;;;;;;2.50;1.60;;;;;;;3.31;66.82;98695.38;5026659;28;20206;-73
2024/01/22 01:04:26;;;;;;;3.60;1.40;;;;;;;3.13;68.28;98684.13;5026973;28;20232;-73
2024/01/22 01:06:52;;;;;;;2.93;1.80;;;;;;;3.16;69.11;98684.63;5032570;28;20210;-73
2024/01/22 01:09:18;;;;;;;3.03;1.80;;;;;;;3.30;68.11;98677.97;5035331;28;20206;-73
2024/01/22 01:11:45;;;;;;;2.90;1.90;;;;;;;3.19;66.32;98688.75;5035100;28;20587;-73
2024/01/22 01:14:11;;;;;;;4.83;1.90;;;;;;;3.10;66.87;98684.44;5035317;28;20214;-73
2024/01/22 01:16:37;;;;;;;2.97;1.80;;;;;;;2.90;70.45;98688.28;5035263;28;20209;-73
2024/01/22 01:19:04;;;;;;;3.60;1.90;;;;;;;2.63;77.66;98693.69;5035238;28;20289;-73
2024/01/22 01:21:30;;;;;;;4.27;1.80;;;;;;;2.46;77.10;98692.75;5034428;28;20202;-73
2024/01/22 01:23:56;;;;;;;2.83;1.77;;;;;;;2.32;78.63;98697.72;5035082;28;20226;-73
2024/01/22 01:26:23;;;;;;;4.27;1.70;;;;;;;2.25;77.74;98694.06;5034813;28;20222;-73
2024/01/22 01:28:49;;;;;;;4.03;1.80;;;;;;;2.38;75.44;98692.69;5034718;28;20217;-73
2024/01/22 01:31:15;;;;;;;2.43;1.90;;;;;;;2.60;71.94;98683.50;5034893;28;20222;-73
2024/01/22 01:33:42;;;;;;;1.67;1.53;;;;;;;2.49;73.75;98684.56;5034834;28;20229;-73
2024/01/22 01:36:08;;;;;;;3.20;1.70;;;;;;;2.47;73.97;98704.06;5034565;28;20576;-73
2024/01/22 01:38:34;;;;;;;3.00;1.83;;;;;;;2.27;76.55;98682.44;5034789;28;20208;-73
2024/01/22 01:41:01;;;;;;;1.90;1.60;;;;;;;2.14;81.15;98682.00;5034802;28;20206;-73
2024/01/22 01:43:27;;;;;;;3.37;1.80;;;;;;;2.02;83.81;98677.94;5034671;28;20230;-73
2024/01/22 01:45:54;;;;;;;4.57;1.53;;;;;;;1.91;84.28;98664.25;5034682;28;20209;-73
2024/01/22 01:48:21;;;;;;;2.97;1.60;;;;;;;1.94;82.46;98674.44;5034711;28;20218;-73
2024/01/22 01:50:47;;;;;;;2.47;1.77;;;;;;;1.89;83.82;98672.25;5034548;28;20230;-73
2024/01/22 01:53:14;;;;;;;2.87;1.50;;;;;;;1.87;84.17;98686.47;5035244;28;20225;-73
2024/01/22 01:55:41;;;;;;;2.23;1.63;;;;;;;1.75;90.80;98680.63;5034361;28;20241;-73
2024/01/22 01:58:08;;;;;;;3.30;2.03;;;;;;;1.68;87.59;98681.38;5034449;28;20547;-73
2024/01/22 02:00:35;;;;;;;3.63;1.93;;;;;;;1.58;90.11;98676.19;5034390;28;20198;-73
2024/01/22 02:03:02;;;;;;;5.33;1.90;;;;;;;1.52;92.15;98678.56;5034264;28;20234;-73
2024/01/22 02:05:27;;;;;;;3.63;1.67;;;;;;;1.65;85.96;98676.44;5034340;28;20264;-73
2024/01/22 02:07:53;;;;;;;3.23;1.67;;;;;;;1.71;84.22;98668.00;5034139;28;20236;-73
2024/01/22 02:10:20;;;;;;;2.87;1.80;;;;;;;1.54;92.36;98656.50;5034068;28;20233;-73
2024/01/22 02:12:46;;;;;;;4.90;2.13;;;;;;;1.46;94.86;98658.22;5033697;28;20708;-73
2024/01/22 02:15:12;;;;;;;2.97;1.83;;;;;;;1.53;92.15;98662.72;5033974;28;20202;-73
2024/01/22 02:17:39;;;;;;;3.23;2.10;;;;;;;1.63;88.69;98652.19;5033976;28;20214;-73
2024/01/22 02:20:06;;;;;;;1.90;1.80;;;;;;;1.70;90.98;98646.19;5033959;28;20202;-73
2024/01/22 02:22:32;;;;;;;4.03;2.30;;;;;;;1.68;88.49;98657.78;5033985;28;20628;-73
2024/01/22 02:24:59;;;;;;;3.33;2.00;;;;;;;1.71;89.81;98649.66;5033656;28;20225;-73
2024/01/22 02:27:26;;;;;;;4.40;2.60;;;;;;;1.65;91.83;98658.91;5033823;28;20300;-73
2024/01/22 02:29:52;;;;;;;4.50;3.10;;;;;;;1.52;93.00;98655.84;5033462;28;20699;-73
2024/01/22 02:32:18;;;;;;;4.37;2.90;;;;;;;1.52;92.66;98668.94;5033505;28;20225;-73
2024/01/22 02:34:45;;;;;;;4.70;3.03;;;;;;;1.40;97.96;98659.63;5033116;28;20210;-73
2024/01/22 02:37:11;;;;;;;4.33;3.27;;;;;;;1.36;96.88;98654.84;5033680;28;20214;-73
2024/01/22 02:39:38;;;;;;;5.23;3.97;;;;;;;1.39;95.66;98655.34;5033908;28;20212;-73
2024/01/22 02:42:04;;;;;;;5.83;3.53;;;;;;;1.25;97.66;98641.94;5033743;28;20545;-73
2024/01/22 02:44:32;;;;;;;4.27;3.80;;;;;;;1.21;96.73;98645.84;5033701;28;20213;-73
2024/01/22 02:46:58;;;;;;;4.53;3.40;;;;;;;1.20;98.13;98646.78;5033398;28;20292;-73
2024/01/22 02:49:24;;;;;;;7.57;3.03;;;;;;;1.09;100.00;98639.13;5033673;28;20206;-73
2024/01/22 02:51:51;;;;;;;6.70;4.30;;;;;;;1.09;99.57;98639.97;5033474;28;20236;-73
2024/01/22 02:54:17;;;;;;;4.47;3.37;;;;;;;1.10;100.00;98630.31;5033333;28;20616;-73
2024/01/22 02:56:43;;;;;;;5.97;3.77;;;;;;;1.11;99.23;98637.19;5033599;28;20206;-73
2024/01/22 02:59:10;;;;;;;5.50;3.70;;;;;;;1.07;100.00;98626.19;5033604;28;20209;-73
2024/01/22 03:01:36;;;;;;;4.87;3.20;;;;;;;0.97;100.00;98624.56;5033530;28;20206;-73
2024/01/22 03:04:02;;;;;;;5.77;3.97;;;;;;;0.97;100.00;98628.03;5033146;28;20712;-73
2024/01/22 03:06:29;;;;;;;5.17;3.23;;;;;;;0.94;100.00;98624.88;5033503;28;20210;-73
2024/01/22 03:08:55;;;;;;;8.03;3.67;;;;;;;0.86;100.00;98612.50;5033467;28;20210;-73
2024/01/22 03:11:23;;;;;;;6.67;4.07;;;;;;;0.98;100.00;98615.78;5033409;28;20234;-73
2024/01/22 03:13:49;;;;;;;7.00;4.20;;;;;;;1.08;100.00;98619.16;5033447;28;20229;-73
2024/01/22 03:16:16;;;;;;;4.83;3.73;;;;;;;1.06;100.00;98621.09;5033395;28;20232;-73
2024/01/22 03:18:42;;;;;;;4.43;3.70;;;;;;;1.09;100.00;98619.03;5033394;28;20221;-73
2024/01/22 03:21:08;;;;;;;5.90;3.57;;;;;;;1.11;100.00;98605.75;5033376;28;20206;-73
2024/01/22 03:23:34;;;;;;;5.33;3.50;;;;;;;1.26;100.00;98609.56;5033137;28;20225;-73
2024/01/22 03:26:02;;;;;;;4.77;3.93;;;;;;;1.27;100.00;98600.72;5032722;28;20703;-73
2024/01/22 03:28:28;;;;;;;4.80;3.80;;;;;;;1.30;100.00;98596.00;5033211;28;20206;-73
2024/01/22 03:30:54;;;;;;;4.80;3.77;;;;;;;1.43;100.00;98606.09;5033191;28;20222;-73
2024/01/22 03:33:21;;;;;;;5.70;3.80;;;;;;;1.42;100.00;98586.97;5033106;28;20236;-73
2024/01/22 03:35:47;;;;;;;5.93;3.40;;;;;;;1.48;100.00;98580.31;5033228;28;20233;-73
2024/01/22 03:38:14;;;;;;;6.07;4.00;;;;;;;1.57;100.00;98580.22;5032796;28;20206;-73
2024/01/22 03:40:41;;;;;;;5.67;3.93;;;;;;;1.62;100.00;98585.03;5033183;28;20202;-73
2024/01/22 03:43:07;;;;;;;5.37;3.50;;;;;;;1.63;100.00;98586.66;5033054;28;20237;-73
2024/01/22 03:45:33;;;;;;;4.20;3.30;;;;;;;1.56;100.00;98581.19;5035275;28;20213;-73
2024/01/22 03:47:59;;;;;;;5.10;3.50;;;;;;;1.56;100.00;98567.25;5036932;28;20213;-73
2024/01/22 03:50:26;;;;;;;5.23;3.50;;;;;;;1.55;100.00;98576.94;5036727;28;20600;-73
2024/01/22 03:52:52;;;;;;;4.53;3.20;;;;;;;1.61;100.00;98562.38;5036379;28;20596;-73
2024/01/22 03:55:19;;;;;;;6.80;3.70;;;;;;;1.80;98.10;98565.69;5036644;28;20210;-73
2024/01/22 03:57:45;;;;;;;4.83;3.80;;;;;;;1.90;98.44;98566.41;5036598;28;20206;-73
2024/01/22 04:00:12;;;;;;;6.77;3.90;;;;;;;1.80;100.00;98568.28;5036646;28;20202;-73
2024/01/22 04:02:38;;;;;;;6.63;3.97;;;;;;;1.70;100.00;98558.88;5036291;28;20232;-73
2024/01/22 04:05:06;;;;;;;5.70;3.90;;;;;;;1.76;100.00;98564.31;5036359;28;20210;-73
2024/01/22 04:07:32;;;;;;;6.87;4.10;;;;;;;1.77;100.00;98567.78;5036490;28;20214;-73
2024/01/22 04:09:59;;;;;;;4.57;3.80;;;;;;;1.74;100.00;98558.44;5035900;28;20217;-73
2024/01/22 04:12:25;;;;;;;8.33;3.83;;;;;;;1.70;100.00;98558.88;5035972;28;20226;-73
2024/01/22 04:14:51;;;;;;;5.90;3.83;;;;;;;1.67;100.00;98553.94;5035718;28;20672;-73
2024/01/22 04:17:18;;;;;;;6.07;3.53;;;;;;;1.73;100.00;98559.41;5036131;28;20213;-73
2024/01/22 04:19:44;;;;;;;6.37;3.80;;;;;;;1.73;100.00;98553.34;5036085;28;20202;-73
2024/01/22 04:22:10;;;;;;;5.03;3.70;;;;;;;1.68;100.00;98545.94;5035878;28;20233;-73
2024/01/22 04:24:38;;;;;;;5.43;3.53;;;;;;;1.65;100.00;98527.88;5036011;28;20210;-74
2024/01/22 04:27:04;;;;;;;6.03;3.77;;;;;;;1.65;100.00;98527.06;5036053;28;20190;-73
2024/01/22 04:29:31;;;;;;;5.33;3.77;;;;;;;1.76;100.00;98530.25;5035997;28;20217;-73
2024/01/22 04:31:57;;;;;;;7.30;3.57;;;;;;;1.82;100.00;98526.22;5035312;28;20587;-73
2024/01/22 04:34:23;;;;;;;6.27;3.57;;;;;;;1.89;100.00;98524.63;5035656;28;20217;-73
2024/01/22 04:36:49;;;;;;;5.00;3.30;;;;;;;1.86;100.00;98530.19;5035874;28;20206;-73
2024/01/22 04:39:16;;;;;;;5.37;3.70;;;;;;;1.84;100.00;98517.22;5035574;28;20336;-73
2024/01/22 04:41:42;;;;;;;5.60;3.83;;;;;;;1.85;100.00;98525.91;5035713;28;20205;-73
2024/01/22 04:44:08;;;;;;;5.03;4.00;;;;;;;1.87;100.00;98516.09;5035621;28;20228;-73
2024/01/22 04:46:35;;;;;;;5.80;3.53;;;;;;;1.82;100.00;98515.72;5036415;28;20213;-73
2024/01/22 04:49:01;;;;;;;6.90;4.10;;;;;;;1.74;100.00;98513.88;5035661;28;20202;-73
2024/01/22 04:51:27;;;;;;;6.67;4.10;;;;;;;1.66;100.00;98508.56;5035591;28;20226;-73
2024/01/22 04:53:54;;;;;;;7.30;4.20;;;;;;;1.64;100.00;98512.31;5035161;28;20593;-73
2024/01/22 04:56:20;;;;;;;5.53;3.73;;;;;;;1.59;100.00;98511.94;5034621;28;20210;-73
2024/01/22 04:58:46;;;;;;;5.87;3.30;;;;;;;1.61;100.00;98507.38;5035555;28;20206;-73
2024/01/22 05:01:13;;;;;;;7.60;4.30;;;;;;;1.60;100.00;98508.34;5035113;28;20209;-73
2024/01/22 05:03:40;;;;;;;7.97;4.10;;;;;;;1.57;100.00;98508.66;5034990;28;20716;-73
2024/01/22 05:06:06;;;;;;;7.83;4.50;;;;;;;1.69;100.00;98504.81;5035088;28;20213;-73
2024/01/22 05:08:33;;;;;;;7.17;4.17;;;;;;;1.73;100.00;98491.28;5035173;28;20206;-73
2024/01/22 05:10:59;;;;;;;6.30;4.27;;;;;;;1.74;100.00;98494.69;5035040;28;20221;-73
2024/01/22 05:13:26;;;;;;;5.27;3.73;;;;;;;1.74;100.00;98494.69;5035016;28;20237;-73
2024/01/22 05:15:52;;;;;;;6.80;3.97;;;;;;;1.79;100.00;98479.31;5034969;28;20213;-73
2024/01/22 05:18:18;;;;;;;7.00;4.27;;;;;;;1.78;100.00;98494.25;5034671;28;20297;-73
2024/01/22 05:20:44;;;;;;;4.57;4.03;;;;;;;1.89;100.00;98485.31;5034780;28;20202;-73
2024/01/22 05:23:11;;;;;;;6.13;3.70;;;;;;;1.93;100.00;98484.84;5034772;28;20242;-73
2024/01/22 05:25:37;;;;;;;6.50;3.77;;;;;;;1.92;100.00;98487.59;5034356;28;20221;-73
2024/01/22 05:28:04;;;;;;;5.63;3.80;;;;;;;2.05;100.00;98485.41;5034360;28;20673;-73
2024/01/22 05:30:30;;;;;;;6.37;3.70;;;;;;;2.07;100.00;98486.06;5034595;28;20209;-73
2024/01/22 05:32:56;;;;;;;6.17;3.67;;;;;;;2.29;100.00;98480.28;5034631;28;20230;-73
2024/01/22 05:35:22;;;;;;;6.60;4.10;;;;;;;2.22;100.00;98487.94;5034369;28;20699;-73
2024/01/22 05:37:50;;;;;;;6.93;3.93;;;;;;;2.13;100.00;98485.44;5034616;28;20209;-73
2024/01/22 05:40:17;;;;;;;5.30;3.97;;;;;;;2.19;100.00;98480.41;5034490;28;20279;-74
2024/01/22 05:42:43;;;;;;;7.33;3.97;;;;;;;2.15;100.00;98467.75;5034196;28;20269;-73
2024/01/22 05:45:10;;;;;;;6.53;4.13;;;;;;;2.13;100.00;98459.22;5034503;28;20206;-73
2024/01/22 05:47:36;;;;;;;7.23;4.37;;;;;;;2.22;100.00;98463.53;5033995;28;20252;-73
2024/01/22 05:50:03;;;;;;;6.20;4.03;;;;;;;2.20;100.00;98454.97;5033981;28;20210;-74
2024/01/22 05:52:29;;;;;;;6.33;3.67;;;;;;;2.17;100.00;98434.34;5033936;28;20233;-73
2024/01/22 05:54:55;;;;;;;8.40;3.83;;;;;;;2.28;100.00;98431.41;5034050;28;20212;-73
2024/01/22 05:57:21;;;;;;;7.20;4.80;;;;;;;2.32;100.00;98432.75;5033862;28;20205;-73
2024/01/22 05:59:48;;;;;;;6.70;4.27;;;;;;;2.29;100.00;98430.44;5034067;28;20206;-73
2024/01/22 06:02:15;;;;;;;13.87;4.50;;;;;;;2.27;100.00;98428.00;5033894;28;20249;-73
2024/01/22 06:04:41;;;;;;;7.70;4.30;;;;;;;2.31;100.00;98437.16;5033797;28;20213;-73
2024/01/22 06:07:07;;;;;;;5.00;4.10;;;;;;;2.23;100.00;98425.81;5033405;28;20206;-73
2024/01/22 06:09:34;;;;;;;9.67;4.07;;;;;;;2.21;100.00;98425.16;5033767;28;20543;-73
2024/01/22 06:12:00;;;;;;;6.03;4.27;;;;;;;2.28;100.00;98418.28;5033714;28;20589;-73
2024/01/22 06:14:26;;;;;;;5.90;3.90;;;;;;;2.41;100.00;98410.81;5033811;28;20217;-74
2024/01/22 06:16:53;;;;;;;9.30;4.30;;;;;;;2.39;100.00;98404.91;5033759;28;20214;-74
2024/01/22 06:19:19;;;;;;;6.83;3.90;;;;;;;2.39;100.00;98402.28;5033273;28;20202;-73
2024/01/22 06:21:45;;;;;;;5.60;3.43;;;;;;;2.52;100.00;98400.03;5032957;28;20557;-73
2024/01/22 06:24:12;;;;;;;5.53;3.50;;;;;;;2.72;100.00;98396.97;5033418;28;20213;-73
2024/01/22 06:26:38;;;;;;;5.23;3.40;;;;;;;2.83;100.00;98390.56;5032537;28;20210;-73
2024/01/22 06:29:05;;;;;;;6.83;3.50;;;;;;;2.85;100.00;98383.34;5032974;28;20702;-73
2024/01/22 06:31:32;;;;;;;8.93;4.00;;;;;;;2.89;100.00;98392.56;5033364;28;20634;-73
2024/01/22 06:33:58;;;;;;;8.37;3.70;;;;;;;2.89;100.00;98389.94;5033144;28;20234;-73
2024/01/22 06:36:28;;;;;;;7.57;3.77;;;;;;;2.80;100.00;98396.94;5033285;28;20217;-73
2024/01/22 06:38:54;;;;;;;5.70;3.77;;;;;;;2.99;100.00;98383.50;5033491;28;20206;-73
2024/01/22 06:41:23;;;;;;;5.67;3.43;;;;;;;2.98;100.00;98381.06;5032669;28;20205;-74
2024/01/22 06:43:50;;;;;;;6.80;3.67;;;;;;;2.99;100.00;98380.06;5033035;28;20225;-73
2024/01/22 06:46:16;;;;;;;7.60;3.03;;;;;;;3.10;100.00;98377.94;5033009;28;20350;-74
2024/01/22 06:48:43;;;;;;;5.30;3.00;;;;;;;3.30;100.00;98381.06;5032668;28;20292;-74
2024/01/22 06:51:11;;;;;;;7.13;3.10;;;;;;;3.51;100.00;98383.97;5032577;28;20313;-74
2024/01/22 06:53:37;;;;;;;4.23;1.97;;;;;;;4.03;100.00;98385.97;5032619;28;20272;-73
2024/01/22 06:56:05;;;;;;;2.37;1.70;;;;;;;4.04;100.00;98373.66;5033910;28;20215;-73
2024/01/22 06:58:32;;;;;;;2.83;1.60;;;;;;;4.24;100.00;98380.13;5032837;28;20256;-73
2024/01/22 07:00:58;;;;;;;2.83;1.50;;;;;;;4.34;100.00;98383.41;5032820;28;20209;-73
2024/01/22 07:03:24;;;;;;;3.03;1.73;;;;;;;4.41;99.17;98384.34;5032327;28;20720;-73
2024/01/22 07:05:52;;;;;;;2.53;1.90;;;;;;;4.49;97.75;98373.78;5032880;28;20206;-73
2024/01/22 07:08:18;;;;;;;2.93;1.53;;;;;;;4.58;96.71;98354.31;5033051;28;20567;-74
2024/01/22 07:10:46;;;;;;;3.07;1.67;;;;;;;4.62;96.03;98360.88;5033084;28;20209;-72
2024/01/22 07:13:12;;;;;;;2.27;1.90;;;;;;;4.85;93.18;98369.59;5033013;28;20238;-73
2024/01/22 07:15:38;;;;;;;4.90;2.20;;;;;;;4.83;92.69;98371.56;5032458;28;20554;-73
2024/01/22 07:18:05;;;;;;;4.87;2.20;;;;;;;4.68;93.55;98389.97;5032873;28;20205;-72
2024/01/22 07:20:31;;;;;;;3.50;2.20;;;;;;;4.79;91.80;98394.81;5034794;28;20660;-72
2024/01/22 07:22:57;;;;;;;3.00;1.83;;;;;;;4.72;93.46;98395.69;5036840;28;20251;-72
2024/01/22 07:25:24;;;;;;;3.80;1.93;;;;;;;4.85;91.54;98394.13;5036601;28;20214;-73
2024/01/22 07:27:50;;;;;;;5.07;1.97;;;;;;;4.66;93.35;98401.66;5036559;28;20209;-73
2024/01/22 07:30:16;;;;;;;2.30;1.70;;;;;;;4.58;94.25;98393.81;5036627;28;20212;-73
2024/01/22 07:32:44;;;;;;;2.63;1.60;;;;;;;4.66;93.63;98385.88;5036332;28;20236;-73
2024/01/22 07:35:13;;;;;;;5.53;1.97;;;;;;;4.57;93.96;98371.09;5036617;28;20205;-73
2024/01/22 07:37:42;;;;;;;3.13;1.90;;;;;;;4.61;93.15;98362.66;5036907;28;20609;-73
2024/01/22 07:40:10;;;;;;;3.10;1.83;;;;;;;4.75;91.85;98361.13;5037030;28;20205;-73
2024/01/22 07:42:37;;;;;;;4.83;1.83;;;;;;;5.33;86.15;98354.22;5036200;28;20275;-73
2024/01/22 07:45:05;;;;;;;4.13;1.67;;;;;;;5.33;86.80;98345.50;5036274;28;20202;-73
2024/01/22 07:47:33;;;;;;;5.87;2.10;;;;;;;5.22;87.34;98340.66;5036347;28;20256;-72
2024/01/22 07:49:59;;;;;;;4.30;2.07;;;;;;;5.33;85.74;98332.31;5036197;28;20210;-72
2024/01/22 07:52:26;;;;;;;4.40;2.10;;;;;;;5.34;85.73;98318.13;5036043;28;20237;-75
2024/01/22 07:54:53;;;;;;;2.73;1.70;;;;;;;5.60;83.28;98313.22;5036151;28;20201;-72
2024/01/22 07:57:19;;;;;;;4.23;2.07;;;;;;;5.60;84.28;98314.06;5035986;28;20260;-72
2024/01/22 07:59:46;;;;;;;2.50;1.83;;;;;;;5.56;84.09;98304.06;5036940;28;20206;-73
2024/01/22 08:02:12;;;;;;;2.63;2.00;;;;;;;5.46;85.56;98300.84;5036143;28;20240;-73
2024/01/22 08:04:39;;;;;;;3.30;1.93;;;;;;;5.46;85.24;98298.22;5036100;28;20206;-72
2024/01/22 08:07:06;;;;;;;5.67;2.40;;;;;;;5.32;85.61;98299.03;5036293;28;20279;-72
2024/01/22 08:09:36;;;;;;;5.30;2.80;;;;;;;5.06;89.19;98298.66;5036743;28;20641;-73
2024/01/22 08:12:04;;;;;;;5.33;2.90;;;;;;;4.96;88.91;98292.78;5035550;28;20705;-72
2024/01/22 08:14:32;;;;;;;5.73;2.80;;;;;;;4.85;90.60;98291.41;5035828;28;20688;-72
2024/01/22 08:16:59;;;;;;;7.73;3.37;;;;;;;4.85;90.68;98282.69;5035925;28;20255;-72
2024/01/22 08:19:26;;;;;;;5.70;2.73;;;;;;;4.89;90.26;98290.03;5036147;28;20301;-73
2024/01/22 08:21:53;;;;;;;7.77;3.13;;;;;;;5.08;89.46;98286.94;5035806;28;20667;-71
2024/01/22 08:24:20;;;;;;;10.10;2.80;;;;;;;4.86;92.54;98281.69;5035978;28;20210;-72
2024/01/22 08:26:46;;;;;;;5.53;2.57;;;;;;;4.79;93.37;98283.41;5035811;28;20622;-74
2024/01/22 08:29:12;;;;;;;5.23;2.73;;;;;;;4.81;92.64;98287.50;5035762;28;20212;-72
2024/01/22 08:31:39;;;;;;;6.37;3.27;;;;;;;4.91;93.84;98289.88;5035546;28;20241;-72
2024/01/22 08:34:05;;;;;;;5.77;2.97;;;;;;;5.17;90.98;98295.56;5035919;28;20225;-72
2024/01/22 08:36:32;;;;;;;6.77;2.87;;;;;;;5.19;91.11;98289.13;5035729;28;20297;-73
2024/01/22 08:38:58;;;;;;;4.83;2.60;;;;;;;5.24;91.31;98288.59;5035013;28;20209;-72
2024/01/22 08:41:27;;;;;;;5.97;3.00;;;;;;;5.27;91.88;98285.56;5035277;28;20216;-72
2024/01/22 08:43:59;;;;;;;7.07;2.67;;;;;;;5.31;90.80;98297.41;5035423;28;20260;-72
2024/01/22 08:46:25;;;;;;;7.17;2.50;;;;;;;5.25;94.51;98287.59;5035566;28;20194;-72
2024/01/22 08:48:52;;;;;;;3.90;2.43;;;;;;;5.50;93.14;98296.88;5036544;28;20213;-72
2024/01/22 08:51:18;;;;;;;3.70;2.23;;;;;;;5.46;92.84;98285.03;5041029;28;20209;-72
2024/01/22 08:53:44;;;;;;;2.80;2.17;;;;;;;5.84;91.77;98278.72;5035409;28;20589;-72
2024/01/22 08:56:11;;;;;;;4.07;1.97;;;;;;;5.84;91.59;98282.16;5035516;28;20213;-72
2024/01/22 08:58:37;;;;;;;5.33;2.40;;;;;;;5.77;91.65;98286.50;5035123;28;20688;-72
2024/01/22 09:01:05;;;;;;;4.50;2.57;;;;;;;6.03;91.85;98276.31;5035149;28;20206;-72
2024/01/22 09:03:32;;;;;;;4.87;2.17;;;;;;;5.80;94.33;98283.56;5035144;28;20246;-72
2024/01/22 09:05:59;;;;;;;5.53;2.30;;;;;;;5.89;94.17;98276.34;5035266;28;20233;-72
2024/01/22 09:08:25;;;;;;;5.60;2.33;;;;;;;5.98;95.99;98285.78;5035300;28;20226;-72
2024/01/22 09:10:52;;;;;;;2.33;1.50;;;;;;;6.57;100.00;98282.81;5034673;28;20578;-72
2024/01/22 09:13:18;;;;;;;1.87;1.40;;;;;;;6.85;100.00;98275.75;5034492;28;20685;-72
2024/01/22 09:15:45;;;;;;;1.43;0.90;;;;;;;7.39;100.00;98273.31;5035154;28;20213;-72
2024/01/22 09:18:11;;;;;;;1.47;0.73;;;;;;;7.91;100.00;98258.56;5035197;28;20206;-72
2024/01/22 09:20:38;;;;;;;0.97;0.57;;;;;;;8.49;100.00;98251.84;5034993;28;20202;-72
2024/01/22 09:23:04;;;;;;;0.50;0.50;;;;;;;8.94;100.00;98251.09;5034718;28;20605;-72
2024/01/22 09:25:31;;;;;;;0.40;0.40;;;;;;;9.32;100.00;98254.75;5034275;28;20214;-72
2024/01/22 09:27:57;;;;;;;0.50;0.47;;;;;;;9.50;100.00;98239.81;5034156;28;20684;-71
2024/01/22 09:30:23;;;;;;;0.47;0.40;;;;;;;9.91;100.00;98252.78;5034567;28;20249;-72
2024/01/22 09:32:50;;;;;;;0.77;0.40;;;;;;;9.77;100.00;98270.56;5034461;28;20237;-71
2024/01/22 09:35:17;;;;;;;0.40;0.30;;;;;;;9.87;100.00;98249.69;5034492;28;20237;-72
2024/01/22 09:37:43;;;;;;;0.80;0.57;;;;;;;10.04;100.00;98272.16;5034159;28;20212;-71
2024/01/22 09:40:11;;;;;;;0.70;0.50;;;;;;;10.17;100.00;98260.66;5034203;28;20571;-72
2024/01/22 09:42:40;;;;;;;1.77;0.53;;;;;;;10.08;100.00;98264.56;5033960;28;20229;-72
2024/01/22 09:45:09;;;;;;;1.03;0.50;;;;;;;10.18;100.00;98233.88;5034579;28;20213;-72
2024/01/22 09:47:37;;;;;;;1.50;0.60;;;;;;;10.43;100.00;98228.63;5034023;28;20210;-71
2024/01/22 09:50:05;;;;;;;2.03;0.50;;;;;;;10.34;100.00;98245.88;5034203;28;20661;-71
2024/01/22 09:52:34;;;;;;;0.63;0.50;;;;;;;10.38;100.00;98229.28;5033732;28;20237;-72
2024/01/22 09:55:01;;;;;;;0.40;0.40;;;;;;;10.55;100.00;98234.91;5033833;28;20206;-72
2024/01/22 09:57:28;;;;;;;0.80;0.40;;;;;;;10.63;100.00;98237.28;5033972;28;20206;-72
2024/01/22 09:59:56;;;;;;;0.83;0.40;;;;;;;10.62;100.00;98222.38;5033898;28;20206;-72
2024/01/22 10:02:22;;;;;;;0.50;0.50;;;;;;;10.75;100.00;98216.97;5033680;28;20249;-72
2024/01/22 10:04:49;;;;;;;0.77;0.40;;;;;;;10.81;100.00;98210.78;5034063;28;20214;-72
2024/01/22 10:07:16;;;;;;;0.50;0.50;;;;;;;10.74;100.00;98210.03;5033535;28;20687;-72
2024/01/22 10:09:44;;;;;;;1.33;0.50;;;;;;;10.64;100.00;98207.03;5033896;28;20207;-72
2024/01/22 10:12:10;;;;;;;0.40;0.40;;;;;;;10.83;100.00;98217.53;5033623;28;20700;-72
2024/01/22 10:14:37;;;;;;;0.50;0.50;;;;;;;10.66;100.00;98210.28;5033512;28;20215;-73
2024/01/22 10:17:17;;;;;;;0.50;0.50;;;;;;;10.86;100.00;98195.81;5033697;28;20210;-72
2024/01/22 10:19:45;;;;;;;1.07;0.50;;;;;;;10.67;100.00;98191.47;5033872;28;20203;-72
2024/01/22 10:22:12;;;;;;;0.70;0.40;;;;;;;10.49;100.00;98191.38;5033773;28;20222;-72
2024/01/22 10:24:39;;;;;;;0.70;0.43;;;;;;;10.77;100.00;98178.50;5033570;28;20212;-72
2024/01/22 10:27:15;;;;;;;0.93;0.50;;;;;;;10.87;100.00;98183.34;5033648;28;20290;-72
2024/01/22 10:29:46;;;;;;;0.40;0.40;;;;;;;10.72;100.00;98190.81;5033686;28;20556;-72
2024/01/22 10:32:12;;;;;;;2.20;0.50;;;;;;;10.97;100.00;98186.31;5033472;28;20228;-72
2024/01/22 10:34:50;;;;;;;0.40;0.40;;;;;;;10.98;100.00;98157.88;5033604;28;20201;-73
2024/01/22 10:37:18;;;;;;;0.70;0.50;;;;;;;11.05;100.00;98162.09;5033587;28;20622;-73
2024/01/22 10:39:45;;;;;;;0.57;0.40;;;;;;;10.96;100.00;98163.41;5033359;28;20212;-76
2024/01/22 10:42:16;;;;;;;0.40;0.40;;;;;;;11.19;100.00;98163.59;5033366;28;20225;-73
2024/01/22 10:44:47;;;;;;;1.63;0.40;;;;;;;11.23;100.00;98155.97;5033287;28;20207;-72
2024/01/22 10:47:15;;;;;;;0.30;0.30;;;;;;;11.12;100.00;98154.06;5033150;28;20203;-72
2024/01/22 10:49:46;;;;;;;1.67;0.60;;;;;;;11.01;100.00;98159.03;5032478;28;20207;-72
2024/01/22 10:52:13;;;;;;;0.40;0.40;;;;;;;11.07;100.00;98138.72;5033328;28;20228;-74
2024/01/22 10:54:40;;;;;;;0.53;0.53;;;;;;;11.16;100.00;98152.59;5032531;28;20205;-73
2024/01/22 10:57:25;;;;;;;1.43;0.57;;;;;;;11.05;100.00;98143.47;5033197;28;20202;-73
2024/01/22 10:59:53;;;;;;;0.77;0.60;;;;;;;10.98;100.00;98135.56;5033191;28;20201;-75
2024/01/22 11:02:23;;;;;;;0.73;0.60;;;;;;;11.05;100.00;98144.28;5032964;28;20225;-75
2024/01/22 11:05:06;;;;;;;0.40;0.40;;;;;;;11.07;100.00;98144.88;5033310;28;20201;-75
2024/01/22 11:07:33;;;;;;;0.50;0.43;;;;;;;11.38;100.00;98127.13;5033105;28;20287;-75
2024/01/22 11:10:02;;;;;;;0.40;0.40;;;;;;;11.54;100.00;98124.72;5033214;28;20209;-75
2024/01/22 11:12:42;;;;;;;0.50;0.50;;;;;;;11.66;100.00;98119.50;5032498;28;20229;-75
2024/01/22 11:15:10;;;;;;;0.77;0.77;;;;;;;11.93;100.00;98118.13;5032959;28;20194;-75
2024/01/22 11:17:36;;;;;;;0.70;0.50;;;;;;;12.00;100.00;98098.31;5032999;28;20642;-75
2024/01/22 11:20:15;;;;;;;1.17;0.50;;;;;;;11.84;100.00;98098.94;5032435;28;20209;-75
2024/01/22 11:22:42;;;;;;;1.43;0.37;;;;;;;11.81;100.00;98096.75;5033307;28;20248;-74
2024/01/22 11:25:12;;;;;;;0.57;0.50;;;;;;;11.93;100.00;98089.59;5032745;28;20213;-75
2024/01/22 11:27:42;;;;;;;0.30;0.30;;;;;;;11.92;100.00;98085.31;5032664;28;20695;-75
2024/01/22 11:30:21;;;;;;;0.67;0.60;;;;;;;11.93;100.00;98084.28;5033054;28;20212;-75
2024/01/22 11:32:48;;;;;;;2.10;0.40;;;;;;;11.86;100.00;98101.38;5032580;28;20230;-74
2024/01/22 11:35:33;;;;;;;0.97;0.60;;;;;;;11.70;100.00;98105.47;5032697;28;20201;-75